createdAt,value
2019-01-17T00:01:40.287Z,4.00
2019-01-17T00:05:13.668Z,4.00
2019-01-17T00:08:36.172Z,4.00
2019-01-17T00:11:58.602Z,4.00
2019-01-17T00:15:26.192Z,4.10
2019-01-17T00:18:50.802Z,4.10
2019-01-17T00:22:13.600Z,4.10
2019-01-17T00:25:37.779Z,4.10
2019-01-17T00:29:01.923Z,4.10
2019-01-17T00:32:29.214Z,4.00
2019-01-17T00:35:52.028Z,4.00
2019-01-17T00:39:24.989Z,4.00
2019-01-17T00:42:54.990Z,3.90
2019-01-17T00:46:17.954Z,3.90
2019-01-17T00:49:53.150Z,3.90
2019-01-17T00:53:09.219Z,3.90
2019-01-17T00:56:32.019Z,3.90
2019-01-17T00:59:56.198Z,4.00
2019-01-17T01:03:12.454Z,4.00
2019-01-17T01:06:42.421Z,4.10
2019-01-17T01:10:01.932Z,4.10
2019-01-17T01:13:24.726Z,4.10
2019-01-17T01:17:22.642Z,4.10
2019-01-17T01:20:49.582Z,4.20
2019-01-17T01:24:31.630Z,4.20
2019-01-17T01:27:55.185Z,4.30
2019-01-17T01:31:28.626Z,4.40
2019-01-17T01:34:55.532Z,4.60
2019-01-17T01:38:18.417Z,4.70
2019-01-17T01:41:42.602Z,4.80
2019-01-17T01:45:12.919Z,4.90
2019-01-17T01:48:25.767Z,4.90
2019-01-17T01:51:48.299Z,4.90
2019-01-17T01:54:53.368Z,5.00
2019-01-17T01:57:58.408Z,5.00
2019-01-17T02:01:03.544Z,5.00
2019-01-17T02:04:08.662Z,5.10
2019-01-17T02:07:13.759Z,5.10
2019-01-17T02:10:18.884Z,5.20
2019-01-17T02:13:23.984Z,5.20
2019-01-17T02:16:29.023Z,5.30
2019-01-17T02:19:34.063Z,5.30
2019-01-17T02:22:39.171Z,5.30
2019-01-17T02:25:44.295Z,5.30
2019-01-17T02:28:49.395Z,5.30
2019-01-17T02:31:54.520Z,5.30
2019-01-17T02:34:59.654Z,5.30
2019-01-17T02:38:04.856Z,5.30
2019-01-17T02:41:09.899Z,5.30
2019-01-17T02:44:15.008Z,5.30
2019-01-17T02:47:20.139Z,5.40
2019-01-17T02:50:25.297Z,5.40
2019-01-17T02:53:30.413Z,5.50
2019-01-17T02:56:35.429Z,5.50
2019-01-17T02:59:40.555Z,5.60
2019-01-17T03:02:45.656Z,5.70
2019-01-17T03:05:50.752Z,5.70
2019-01-17T03:08:55.875Z,5.70
2019-01-17T03:12:00.971Z,5.80
2019-01-17T03:15:06.526Z,5.80
2019-01-17T03:18:11.622Z,5.80
2019-01-17T03:21:16.672Z,5.80
2019-01-17T03:24:21.697Z,5.80
2019-01-17T03:27:26.743Z,5.70
2019-01-17T03:30:31.850Z,5.70
2019-01-17T03:33:36.964Z,5.70
2019-01-17T03:36:42.163Z,5.80
2019-01-17T03:39:47.280Z,5.80
2019-01-17T03:42:52.399Z,5.90
2019-01-17T03:45:57.487Z,6.00
2019-01-17T03:49:02.529Z,6.10
2019-01-17T03:52:07.615Z,6.20
2019-01-17T03:55:14.836Z,6.30
2019-01-17T03:58:19.927Z,6.40
2019-01-17T04:01:25.042Z,6.50
2019-01-17T04:04:30.129Z,6.60
2019-01-17T04:07:35.228Z,6.70
2019-01-17T04:10:40.339Z,6.80
2019-01-17T04:13:45.363Z,6.90
2019-01-17T04:16:50.407Z,6.90
2019-01-17T04:19:55.479Z,7.00
2019-01-17T04:23:00.583Z,7.10
2019-01-17T04:26:05.746Z,7.10
2019-01-17T04:29:10.775Z,7.10
2019-01-17T04:32:15.817Z,7.20
2019-01-17T04:35:20.927Z,7.20
2019-01-17T04:38:25.944Z,7.20
2019-01-17T04:41:31.059Z,7.20
2019-01-17T04:44:36.175Z,7.20
2019-01-17T04:47:41.272Z,7.20
2019-01-17T04:50:46.375Z,7.20
2019-01-17T04:53:51.332Z,7.10
2019-01-17T04:56:56.433Z,7.10
2019-01-17T05:00:01.455Z,7.10
2019-01-17T05:03:06.483Z,7.10
2019-01-17T05:06:11.568Z,7.00
2019-01-17T05:09:16.681Z,7.00
2019-01-17T05:12:21.776Z,6.90
2019-01-17T05:15:27.124Z,6.90
2019-01-17T05:18:32.160Z,6.80
2019-01-17T05:21:37.337Z,6.80
2019-01-17T05:24:42.380Z,6.80
2019-01-17T05:27:47.535Z,6.80
2019-01-17T05:30:52.580Z,6.80
2019-01-17T05:33:57.683Z,6.80
2019-01-17T05:37:02.794Z,6.90
2019-01-17T05:40:10.736Z,6.90
2019-01-17T05:43:15.839Z,6.90
2019-01-17T05:46:20.960Z,6.90
2019-01-17T05:49:25.982Z,6.90
2019-01-17T05:52:31.113Z,6.90
2019-01-17T05:55:36.147Z,6.90
2019-01-17T05:58:41.632Z,6.80
2019-01-17T06:01:46.775Z,6.80
2019-01-17T06:04:53.276Z,6.90
2019-01-17T06:07:58.471Z,6.80
2019-01-17T06:11:03.784Z,6.80
2019-01-17T06:14:09.055Z,6.80
2019-01-17T06:17:14.356Z,6.80
2019-01-17T06:20:19.667Z,6.80
2019-01-17T06:23:24.750Z,6.80
2019-01-17T06:26:32.136Z,6.80
2019-01-17T06:29:38.497Z,6.80
2019-01-17T06:32:43.703Z,6.80
2019-01-17T06:35:48.824Z,6.80
2019-01-17T06:38:53.866Z,6.80
2019-01-17T06:41:58.955Z,6.80
2019-01-17T06:45:04.286Z,6.80
2019-01-17T06:48:09.496Z,6.90
2019-01-17T06:51:14.612Z,6.90
2019-01-17T06:54:19.711Z,6.90
2019-01-17T06:57:24.778Z,6.90
2019-01-17T07:00:30.299Z,6.90
2019-01-17T07:03:35.755Z,7.00
2019-01-17T07:06:40.864Z,7.00
2019-01-17T07:09:45.965Z,7.00
2019-01-17T07:12:51.065Z,7.10
2019-01-17T07:15:56.163Z,7.10
2019-01-17T07:19:01.283Z,7.10
2019-01-17T07:22:06.409Z,7.10
2019-01-17T07:25:11.822Z,7.10
2019-01-17T07:28:16.847Z,7.20
2019-01-17T07:31:21.888Z,7.20
2019-01-17T07:34:26.928Z,7.20
2019-01-17T07:37:31.955Z,7.20
2019-01-17T07:40:37.016Z,7.20
2019-01-17T07:43:42.056Z,7.30
2019-01-17T07:46:47.167Z,7.30
2019-01-17T07:49:52.259Z,7.30
2019-01-17T07:52:57.412Z,7.40
2019-01-17T07:56:02.539Z,7.40
2019-01-17T07:59:07.618Z,7.40
2019-01-17T08:02:12.727Z,7.40
2019-01-17T08:05:18.116Z,7.50
2019-01-17T08:08:23.152Z,7.50
2019-01-17T08:11:28.175Z,7.50
2019-01-17T08:14:34.275Z,7.60
2019-01-17T08:17:39.507Z,7.60
2019-01-17T08:20:44.664Z,7.60
2019-01-17T08:23:49.771Z,7.60
2019-01-17T08:26:54.868Z,7.60
2019-01-17T08:29:59.826Z,7.60
2019-01-17T08:33:05.020Z,7.70
2019-01-17T08:36:10.117Z,7.70
2019-01-17T08:39:15.229Z,7.70
2019-01-17T08:42:20.263Z,7.70
2019-01-17T08:45:25.364Z,7.70
2019-01-17T08:48:30.447Z,7.70
2019-01-17T08:51:35.480Z,7.70
2019-01-17T08:54:40.594Z,7.80
2019-01-17T08:57:45.727Z,7.80
2019-01-17T09:00:50.775Z,7.90
2019-01-17T09:03:55.822Z,7.90
2019-01-17T09:07:00.963Z,7.90
2019-01-17T09:10:07.142Z,8.00
2019-01-17T09:13:12.254Z,8.00
2019-01-17T09:16:17.366Z,8.00
2019-01-17T09:19:22.476Z,8.00
2019-01-17T09:22:27.582Z,7.90
2019-01-17T09:25:32.694Z,7.90
2019-01-17T09:28:37.739Z,7.90
2019-01-17T09:31:42.857Z,7.90
2019-01-17T09:34:47.999Z,7.90
2019-01-17T09:37:53.119Z,7.90
2019-01-17T09:40:58.238Z,7.80
2019-01-17T09:44:03.471Z,7.80
2019-01-17T09:47:08.600Z,7.80
2019-01-17T09:50:15.964Z,7.80
2019-01-17T09:53:20.994Z,7.80
2019-01-17T09:56:26.181Z,7.80
2019-01-17T09:59:31.317Z,7.80
2019-01-17T10:02:38.422Z,7.80
2019-01-17T10:05:43.875Z,7.80
2019-01-17T10:08:49.100Z,7.90
2019-01-17T10:11:54.324Z,7.90
2019-01-17T10:15:00.192Z,8.00
2019-01-17T10:18:30.719Z,8.00
2019-01-17T10:22:19.731Z,7.90
2019-01-17T10:26:21.207Z,7.90
2019-01-17T10:30:00.925Z,7.90
2019-01-17T10:33:40.153Z,7.90
2019-01-17T10:37:07.247Z,7.90
2019-01-17T10:41:01.775Z,7.90
2019-01-17T10:44:56.698Z,8.00
2019-01-17T10:48:31.431Z,8.00
2019-01-17T10:52:25.335Z,8.00
2019-01-17T10:56:16.902Z,8.00
2019-01-17T10:59:30.192Z,8.00
2019-01-17T11:02:59.192Z,8.00
2019-01-17T11:06:48.799Z,8.10
2019-01-17T11:10:35.556Z,8.10
2019-01-17T11:14:39.679Z,8.20
2019-01-17T11:18:31.423Z,8.20
2019-01-17T11:22:27.231Z,8.30
2019-01-17T11:26:10.350Z,8.30
2019-01-17T11:29:54.899Z,8.30
2019-01-17T11:33:26.694Z,8.30
2019-01-17T11:37:10.164Z,8.30
2019-01-17T11:40:39.900Z,8.30
2019-01-17T11:44:46.353Z,8.30
2019-01-17T11:48:24.639Z,8.40
2019-01-17T11:52:09.946Z,8.40
2019-01-17T11:55:34.777Z,8.40
2019-01-17T11:59:06.577Z,8.50
2019-01-17T12:03:07.771Z,8.50
2019-01-17T12:06:12.867Z,8.50
2019-01-17T12:09:17.840Z,8.50
2019-01-17T12:12:23.628Z,8.40
2019-01-17T12:15:28.658Z,8.40
2019-01-17T12:18:33.761Z,8.40
2019-01-17T12:21:38.867Z,8.40
2019-01-17T12:24:43.895Z,8.40
2019-01-17T12:27:49.015Z,8.40
2019-01-17T12:30:54.115Z,8.40
2019-01-17T12:33:59.071Z,8.50
2019-01-17T12:37:04.337Z,8.50
2019-01-17T12:40:11.829Z,8.40
2019-01-17T12:43:16.959Z,8.40
2019-01-17T12:46:22.004Z,8.40
2019-01-17T12:49:27.119Z,8.40
2019-01-17T12:52:32.153Z,8.30
2019-01-17T12:55:37.347Z,8.30
2019-01-17T12:58:42.832Z,8.30
2019-01-17T13:01:48.398Z,8.20
2019-01-17T13:04:54.101Z,8.20
2019-01-17T13:07:59.600Z,8.10
2019-01-17T13:11:05.320Z,8.20
2019-01-17T13:14:10.787Z,8.10
2019-01-17T13:17:16.302Z,8.10
2019-01-17T13:20:21.962Z,8.10
2019-01-17T13:23:27.471Z,8.10
2019-01-17T13:26:32.975Z,8.10
2019-01-17T13:29:38.215Z,8.10
2019-01-17T13:32:43.367Z,8.10
2019-01-17T13:35:48.822Z,8.10
2019-01-17T13:38:54.275Z,8.00
2019-01-17T13:41:59.478Z,8.10
2019-01-17T13:45:06.500Z,8.10
2019-01-17T13:48:11.648Z,8.10
2019-01-17T13:51:17.108Z,8.10
2019-01-17T13:54:22.557Z,8.10
2019-01-17T13:57:27.891Z,8.10
2019-01-17T14:00:33.391Z,8.10
2019-01-17T14:03:38.658Z,8.10
2019-01-17T14:06:44.078Z,8.10
2019-01-17T14:09:49.640Z,8.10
2019-01-17T14:12:54.681Z,8.10
2019-01-17T14:16:01.816Z,8.10
2019-01-17T14:19:07.185Z,8.10
2019-01-17T14:22:13.235Z,8.00
2019-01-17T14:25:18.449Z,8.00
2019-01-17T14:28:23.656Z,8.00
2019-01-17T14:31:28.955Z,8.00
2019-01-17T14:34:34.431Z,7.90
2019-01-17T14:37:39.764Z,7.90
2019-01-17T14:40:44.896Z,7.80
2019-01-17T14:43:50.092Z,7.70
2019-01-17T14:46:55.580Z,7.70
2019-01-17T14:50:01.538Z,7.60
2019-01-17T14:53:07.041Z,7.60
2019-01-17T14:56:12.337Z,7.60
2019-01-17T14:59:17.583Z,7.60
2019-01-17T15:02:22.979Z,7.60
2019-01-17T15:05:28.314Z,7.50
2019-01-17T15:08:33.619Z,7.50
2019-01-17T15:11:38.849Z,7.50
2019-01-17T15:14:44.580Z,7.40
2019-01-17T15:17:49.767Z,7.40
2019-01-17T15:20:55.025Z,7.30
2019-01-17T15:24:00.216Z,7.30
2019-01-17T15:27:05.391Z,7.30
2019-01-17T15:30:13.815Z,7.40
2019-01-17T15:33:19.018Z,7.50
2019-01-17T15:36:24.108Z,7.60
2019-01-17T15:39:29.563Z,7.60
2019-01-17T15:42:34.525Z,7.60
2019-01-17T15:45:39.758Z,7.50
2019-01-17T15:48:44.909Z,7.40
2019-01-17T15:51:50.136Z,7.20
2019-01-17T15:54:55.548Z,7.00
2019-01-17T15:58:00.661Z,6.90
2019-01-17T16:01:06.144Z,6.70
2019-01-17T16:04:11.516Z,6.60
2019-01-17T16:07:16.624Z,6.50
2019-01-17T16:10:21.715Z,6.50
2019-01-17T16:13:26.821Z,6.40
2019-01-17T16:16:31.865Z,6.30
2019-01-17T16:19:36.971Z,6.20
2019-01-17T16:22:42.160Z,6.20
2019-01-17T16:25:47.244Z,6.20
2019-01-17T16:28:52.291Z,6.20
2019-01-17T16:31:57.330Z,6.10
2019-01-17T16:35:02.375Z,6.10
2019-01-17T16:38:07.474Z,6.10
2019-01-17T16:41:12.504Z,6.00
2019-01-17T16:44:17.521Z,6.00
2019-01-17T16:47:22.631Z,6.00
2019-01-17T16:50:27.799Z,6.00
2019-01-17T16:53:32.892Z,6.10
2019-01-17T16:56:38.005Z,6.10
2019-01-17T16:59:43.099Z,6.10
2019-01-17T17:02:48.237Z,6.00
2019-01-17T17:05:53.319Z,6.00
2019-01-17T17:08:58.428Z,5.90
2019-01-17T17:12:03.459Z,5.90
2019-01-17T17:15:08.924Z,5.80
2019-01-17T17:18:14.436Z,5.70
2019-01-17T17:21:19.634Z,5.70
2019-01-17T17:24:24.739Z,5.70
2019-01-17T17:27:29.873Z,5.70
2019-01-17T17:30:34.984Z,5.70
2019-01-17T17:33:40.080Z,5.70
2019-01-17T17:36:45.174Z,5.70
2019-01-17T17:39:50.187Z,5.70
2019-01-17T17:42:55.296Z,5.70
2019-01-17T17:46:00.419Z,5.70
2019-01-17T17:49:05.547Z,5.70
2019-01-17T17:52:10.604Z,5.70
2019-01-17T17:55:15.724Z,5.70
2019-01-17T17:58:26.216Z,5.80
2019-01-17T18:01:40.496Z,5.90
2019-01-17T18:04:45.717Z,6.10
2019-01-17T18:07:50.809Z,6.20
2019-01-17T18:10:55.924Z,6.30
2019-01-17T18:14:00.993Z,6.40
2019-01-17T18:17:06.158Z,6.40
2019-01-17T18:20:12.424Z,6.50
2019-01-17T18:23:17.457Z,6.50
2019-01-17T18:26:22.564Z,6.20
2019-01-17T18:29:27.650Z,5.90
2019-01-17T18:32:32.755Z,5.70
2019-01-17T18:35:37.865Z,5.50
2019-01-17T18:38:42.962Z,5.40
2019-01-17T18:41:48.894Z,5.30
2019-01-17T18:44:54.036Z,5.20
2019-01-17T18:47:59.152Z,5.20
2019-01-17T18:51:05.448Z,5.20
2019-01-17T18:54:10.634Z,5.20
2019-01-17T18:57:15.740Z,5.20
2019-01-17T19:00:23.776Z,5.10
2019-01-17T19:03:28.786Z,4.90
2019-01-17T19:06:33.903Z,4.70
2019-01-17T19:09:39.004Z,4.60
2019-01-17T19:12:44.155Z,4.50
2019-01-17T19:15:49.265Z,4.40
2019-01-17T19:18:54.376Z,4.30
2019-01-17T19:21:59.495Z,4.30
2019-01-17T19:25:05.227Z,4.30
2019-01-17T19:28:10.480Z,4.30
2019-01-17T19:31:15.723Z,4.20
2019-01-17T19:34:23.637Z,4.20
2019-01-17T19:37:28.722Z,4.20
2019-01-17T19:40:34.247Z,4.20
2019-01-17T19:43:39.631Z,4.20
2019-01-17T19:46:44.749Z,4.20
2019-01-17T19:49:50.176Z,4.10
2019-01-17T19:52:55.357Z,4.20
2019-01-17T19:56:00.587Z,4.10
2019-01-17T19:59:05.690Z,4.10
2019-01-17T20:02:11.118Z,4.10
2019-01-17T20:05:17.337Z,4.10
2019-01-17T20:08:22.475Z,4.10
2019-01-17T20:11:27.573Z,4.00
2019-01-17T20:14:34.018Z,4.00
2019-01-17T20:17:39.111Z,3.90
2019-01-17T20:20:44.226Z,3.90
2019-01-17T20:23:49.320Z,3.90
2019-01-17T20:26:54.532Z,4.10
2019-01-17T20:30:00.185Z,4.20
2019-01-17T20:33:07.179Z,4.30
2019-01-17T20:36:12.306Z,4.40
2019-01-17T20:39:17.419Z,4.50
2019-01-17T20:42:22.575Z,4.60
2019-01-17T20:45:27.620Z,4.70
2019-01-17T20:48:32.693Z,4.80
2019-01-17T20:51:37.811Z,4.70
2019-01-17T20:54:42.940Z,4.40
2019-01-17T20:57:49.196Z,4.00
2019-01-17T21:01:29.577Z,3.80
2019-01-17T21:04:34.652Z,3.60
2019-01-17T21:07:39.748Z,3.50
2019-01-17T21:10:44.788Z,3.40
2019-01-17T21:13:49.920Z,3.40
2019-01-17T21:16:55.031Z,3.40
2019-01-17T21:20:01.771Z,3.40
2019-01-17T21:23:07.269Z,3.30
2019-01-17T21:26:12.350Z,3.30
2019-01-17T21:29:17.329Z,3.20
2019-01-17T21:32:22.384Z,3.20
2019-01-17T21:35:28.027Z,3.20
2019-01-17T21:38:33.081Z,3.10
2019-01-17T21:41:38.266Z,3.10
2019-01-17T21:44:43.319Z,3.10
2019-01-17T21:47:48.517Z,3.10
2019-01-17T21:50:53.649Z,3.10
2019-01-17T21:53:58.827Z,3.10
2019-01-17T21:57:03.946Z,3.10
2019-01-17T22:00:13.492Z,3.10
2019-01-17T22:03:18.855Z,3.10
2019-01-17T22:06:23.968Z,3.10
2019-01-17T22:09:29.481Z,3.10
2019-01-17T22:12:35.589Z,3.20
2019-01-17T22:15:40.917Z,3.20
2019-01-17T22:18:46.518Z,3.20
2019-01-17T22:21:51.999Z,3.20
2019-01-17T22:24:57.194Z,3.20
2019-01-17T22:28:02.250Z,3.20
2019-01-17T22:31:07.384Z,3.20
2019-01-17T22:34:12.491Z,3.10
2019-01-17T22:37:17.828Z,3.20
2019-01-17T22:40:23.182Z,3.20
2019-01-17T22:43:28.475Z,3.30
2019-01-17T22:46:33.582Z,3.40
2019-01-17T22:49:38.620Z,3.40
2019-01-17T22:52:44.773Z,3.40
2019-01-17T22:55:50.091Z,3.40
2019-01-17T22:58:55.860Z,3.30
2019-01-17T23:02:01.426Z,3.30
2019-01-17T23:05:06.574Z,3.20
2019-01-17T23:08:11.698Z,3.20
2019-01-17T23:11:16.839Z,3.20
2019-01-17T23:14:21.942Z,3.10
2019-01-17T23:17:27.081Z,3.10
2019-01-17T23:20:32.183Z,3.10
2019-01-17T23:23:38.413Z,3.10
2019-01-17T23:26:43.664Z,3.10
2019-01-17T23:29:48.783Z,3.10
2019-01-17T23:32:53.802Z,3.10
2019-01-17T23:35:58.940Z,3.10
2019-01-17T23:39:07.163Z,3.10
2019-01-17T23:42:12.198Z,3.10
2019-01-17T23:45:17.321Z,3.10
2019-01-17T23:48:22.353Z,3.10
2019-01-17T23:51:27.487Z,3.10
2019-01-17T23:54:32.623Z,3.10
2019-01-17T23:57:37.747Z,3.00
